createdAt,value
2018-03-19T00:00:54.197Z,-1.20
2018-03-19T00:03:22.070Z,-1.30
2018-03-19T00:05:49.931Z,-1.30
2018-03-19T00:08:17.799Z,-1.20
2018-03-19T00:10:45.667Z,-1.20
2018-03-19T00:13:19.945Z,-1.10
2018-03-19T00:15:49.495Z,-1.10
2018-03-19T00:18:19.468Z,-1.00
2018-03-19T00:20:49.448Z,-0.90
2018-03-19T00:23:19.043Z,-1.00
2018-03-19T00:25:48.513Z,-1.10
2018-03-19T00:28:16.406Z,-1.10
2018-03-19T00:30:44.272Z,-1.20
2018-03-19T00:33:12.144Z,-1.20
2018-03-19T00:35:40.007Z,-1.10
2018-03-19T00:38:07.873Z,-1.20
2018-03-19T00:40:35.743Z,-1.10
2018-03-19T00:43:03.548Z,-1.20
2018-03-19T00:45:32.191Z,-1.30
2018-03-19T00:48:00.063Z,-1.30
2018-03-19T00:50:27.927Z,-1.20
2018-03-19T00:52:55.794Z,-1.20
2018-03-19T00:55:23.661Z,-1.20
2018-03-19T00:57:51.528Z,-1.30
2018-03-19T01:00:19.397Z,-1.20
2018-03-19T01:02:47.111Z,-1.30
2018-03-19T01:05:15.744Z,-1.30
2018-03-19T01:07:43.613Z,-1.30
2018-03-19T01:10:11.479Z,-1.20
2018-03-19T01:12:39.347Z,-1.30
2018-03-19T01:15:07.214Z,-1.20
2018-03-19T01:17:35.081Z,-1.30
2018-03-19T01:20:02.948Z,-1.30
2018-03-19T01:22:30.817Z,-1.30
2018-03-19T01:24:58.682Z,-1.30
2018-03-19T01:27:26.550Z,-1.30
2018-03-19T01:29:54.316Z,-1.20
2018-03-19T01:32:22.110Z,-1.20
2018-03-19T01:34:50.767Z,-1.20
2018-03-19T01:37:18.634Z,-1.20
2018-03-19T01:39:46.502Z,-1.30
2018-03-19T01:42:14.368Z,-1.30
2018-03-19T01:44:42.236Z,-1.30
2018-03-19T01:47:10.106Z,-1.30
2018-03-19T01:49:37.971Z,-1.20
2018-03-19T01:52:05.838Z,-1.10
2018-03-19T01:54:33.706Z,-0.90
2018-03-19T01:57:01.573Z,-1.00
2018-03-19T01:59:29.441Z,-1.00
2018-03-19T02:01:57.307Z,-0.90
2018-03-19T02:04:25.182Z,-0.90
2018-03-19T02:06:53.042Z,-0.90
2018-03-19T02:09:20.910Z,-0.90
2018-03-19T02:11:48.777Z,-0.90
2018-03-19T02:14:16.677Z,-0.90
2018-03-19T02:16:45.331Z,-0.90
2018-03-19T02:19:13.199Z,-0.90
2018-03-19T02:21:41.068Z,-0.80
2018-03-19T02:24:08.968Z,-0.70
2018-03-19T02:26:37.620Z,-0.60
2018-03-19T02:29:05.486Z,-0.60
2018-03-19T02:31:33.360Z,-0.60
2018-03-19T02:34:01.222Z,-0.40
2018-03-19T02:36:29.091Z,-0.40
2018-03-19T02:38:56.956Z,-0.40
2018-03-19T02:41:24.824Z,-0.60
2018-03-19T02:43:52.690Z,-0.70
2018-03-19T02:46:20.497Z,-0.80
2018-03-19T02:48:49.141Z,-0.80
2018-03-19T02:51:17.009Z,-0.80
2018-03-19T02:53:44.882Z,-0.80
2018-03-19T02:56:12.744Z,-0.80
2018-03-19T02:58:40.611Z,-0.80
2018-03-19T03:01:08.684Z,-1.00
2018-03-19T03:03:36.551Z,-1.00
2018-03-19T03:06:04.418Z,-1.00
2018-03-19T03:08:32.286Z,-0.90
2018-03-19T03:11:00.152Z,-0.80
2018-03-19T03:13:28.020Z,-0.70
2018-03-19T03:15:55.890Z,-0.80
2018-03-19T03:18:23.755Z,-0.80
2018-03-19T03:20:51.621Z,-0.80
2018-03-19T03:23:19.494Z,-0.70
2018-03-19T03:25:47.357Z,-0.60
2018-03-19T03:28:15.166Z,-0.70
2018-03-19T03:30:43.809Z,-0.70
2018-03-19T03:33:11.675Z,-0.60
2018-03-19T03:35:39.542Z,-0.70
2018-03-19T03:38:07.410Z,-0.70
2018-03-19T03:40:35.277Z,-0.80
2018-03-19T03:43:03.146Z,-0.80
2018-03-19T03:45:31.014Z,-0.80
2018-03-19T03:47:58.879Z,-0.80
2018-03-19T03:50:26.746Z,-0.80
2018-03-19T03:52:54.613Z,-0.80
2018-03-19T03:55:22.481Z,-0.90
2018-03-19T03:57:50.349Z,-1.00
2018-03-19T04:00:18.215Z,-0.90
2018-03-19T04:02:46.083Z,-0.90
2018-03-19T04:05:13.950Z,-0.80
2018-03-19T04:07:41.818Z,-0.90
2018-03-19T04:10:09.685Z,-1.00
2018-03-19T04:12:37.552Z,-1.10
2018-03-19T04:15:05.419Z,-1.10
2018-03-19T04:17:33.286Z,-1.10
2018-03-19T04:20:01.154Z,-1.00
2018-03-19T04:22:29.021Z,-0.90
2018-03-19T04:24:56.888Z,-0.90
2018-03-19T04:27:24.758Z,-0.90
2018-03-19T04:29:52.623Z,-0.90
2018-03-19T04:32:20.494Z,-0.90
2018-03-19T04:34:48.357Z,-1.00
2018-03-19T04:37:16.227Z,-1.00
2018-03-19T04:39:44.298Z,-1.10
2018-03-19T04:42:12.094Z,-1.10
2018-03-19T04:44:39.931Z,-1.20
2018-03-19T04:47:07.797Z,-1.20
2018-03-19T04:49:35.664Z,-1.20
2018-03-19T04:52:03.531Z,-1.20
2018-03-19T04:54:31.399Z,-1.10
2018-03-19T04:56:59.273Z,-1.10
2018-03-19T04:59:27.137Z,-1.20
2018-03-19T05:01:55.001Z,-1.20
2018-03-19T05:04:22.868Z,-1.20
2018-03-19T05:06:50.735Z,-1.10
2018-03-19T05:09:18.602Z,-1.20
2018-03-19T05:11:46.367Z,-1.10
2018-03-19T05:14:14.238Z,-1.20
2018-03-19T05:16:42.204Z,-1.10
2018-03-19T05:19:10.173Z,-1.20
2018-03-19T05:21:38.894Z,-1.30
2018-03-19T05:24:07.650Z,-1.40
2018-03-19T05:26:35.518Z,-1.40
2018-03-19T05:29:03.385Z,-1.40
2018-03-19T05:31:31.252Z,-1.50
2018-03-19T05:33:59.119Z,-1.50
2018-03-19T05:36:26.986Z,-1.50
2018-03-19T05:38:54.854Z,-1.40
2018-03-19T05:41:22.722Z,-1.40
2018-03-19T05:43:50.588Z,-1.30
2018-03-19T05:46:18.450Z,-1.20
2018-03-19T05:48:46.322Z,-1.10
2018-03-19T05:51:14.191Z,-1.10
2018-03-19T05:53:42.057Z,-1.20
2018-03-19T05:56:09.930Z,-1.20
2018-03-19T05:58:37.792Z,-1.10
2018-03-19T06:01:05.659Z,-1.10
2018-03-19T06:03:33.527Z,-1.10
2018-03-19T06:06:01.395Z,-1.00
2018-03-19T06:08:29.266Z,-1.20
2018-03-19T06:10:57.128Z,-1.30
2018-03-19T06:13:24.996Z,-1.30
2018-03-19T06:15:52.863Z,-1.30
2018-03-19T06:18:20.754Z,-1.10
2018-03-19T06:20:48.465Z,-1.20
2018-03-19T06:23:16.260Z,-1.20
2018-03-19T06:25:44.127Z,-1.30
2018-03-19T06:28:12.015Z,-1.30
2018-03-19T06:30:39.863Z,-1.20
2018-03-19T06:33:07.730Z,-1.20
2018-03-19T06:35:35.596Z,-1.10
2018-03-19T06:38:03.464Z,-1.10
2018-03-19T06:40:31.183Z,-1.20
2018-03-19T06:42:58.994Z,-1.20
2018-03-19T06:45:26.861Z,-1.30
2018-03-19T06:47:54.729Z,-1.30
2018-03-19T06:50:22.595Z,-1.30
2018-03-19T06:52:50.463Z,-1.30
2018-03-19T06:55:18.330Z,-1.20
2018-03-19T06:57:46.060Z,-1.10
2018-03-19T07:00:13.774Z,-1.10
2018-03-19T07:02:41.634Z,-1.00
2018-03-19T07:05:09.357Z,-1.10
2018-03-19T07:07:37.154Z,-1.00
2018-03-19T07:10:05.023Z,-1.20
2018-03-19T07:12:32.889Z,-1.10
2018-03-19T07:15:00.757Z,-1.20
2018-03-19T07:17:28.624Z,-1.10
2018-03-19T07:19:56.491Z,-1.10
2018-03-19T07:22:24.359Z,-1.10
2018-03-19T07:24:52.226Z,-0.90
2018-03-19T07:27:20.108Z,-0.90
2018-03-19T07:29:47.962Z,-1.10
2018-03-19T07:32:15.829Z,-1.00
2018-03-19T07:34:43.764Z,-1.00
2018-03-19T07:37:12.382Z,-0.80
2018-03-19T07:39:40.249Z,-0.80
2018-03-19T07:42:08.117Z,-0.80
2018-03-19T07:44:35.989Z,-0.80
2018-03-19T07:47:03.852Z,-0.80
2018-03-19T07:49:31.719Z,-0.70
2018-03-19T07:51:59.586Z,-0.70
2018-03-19T07:54:27.453Z,-0.60
2018-03-19T07:56:55.320Z,-0.70
2018-03-19T07:59:23.393Z,-0.80
2018-03-19T08:01:51.260Z,-0.80
2018-03-19T08:04:19.059Z,-0.50
2018-03-19T08:06:47.712Z,-0.40
2018-03-19T08:09:15.580Z,-0.40
2018-03-19T08:11:43.446Z,-0.20
2018-03-19T08:14:11.313Z,-0.40
2018-03-19T08:16:39.180Z,-0.30
2018-03-19T08:19:07.047Z,-0.40
2018-03-19T08:21:34.915Z,-0.20
2018-03-19T08:24:04.698Z,0.00
2018-03-19T08:26:33.415Z,-0.20
2018-03-19T08:29:01.283Z,-0.30
2018-03-19T08:31:29.149Z,-0.10
2018-03-19T08:33:57.018Z,0.10
2018-03-19T08:36:24.884Z,-0.10
2018-03-19T08:38:52.753Z,-0.10
2018-03-19T08:41:20.618Z,-0.10
2018-03-19T08:43:48.420Z,0.00
2018-03-19T08:46:17.070Z,0.20
2018-03-19T08:48:44.938Z,0.10
2018-03-19T08:51:12.805Z,0.50
2018-03-19T08:53:40.674Z,0.60
2018-03-19T08:56:08.539Z,0.90
2018-03-19T08:58:36.410Z,1.10
2018-03-19T09:01:04.274Z,1.50
2018-03-19T09:03:32.711Z,2.00
2018-03-19T09:06:00.522Z,2.40
2018-03-19T09:08:28.389Z,2.40
2018-03-19T09:10:56.882Z,2.50
2018-03-19T09:13:24.844Z,2.70
2018-03-19T09:15:52.711Z,3.10
2018-03-19T09:18:20.573Z,3.10
2018-03-19T09:20:49.889Z,2.80
2018-03-19T09:23:18.664Z,2.30
2018-03-19T09:25:46.532Z,3.00
2018-03-19T09:28:14.399Z,3.70
2018-03-19T09:30:42.267Z,4.20
2018-03-19T09:33:10.133Z,4.60
2018-03-19T09:35:38.005Z,5.00
2018-03-19T09:38:05.868Z,5.30
2018-03-19T09:40:33.639Z,4.60
2018-03-19T09:43:01.500Z,5.30
2018-03-19T09:45:29.296Z,5.80
2018-03-19T09:47:57.133Z,6.40
2018-03-19T09:50:24.999Z,6.50
2018-03-19T09:52:52.868Z,5.90
2018-03-19T09:55:20.735Z,5.30
2018-03-19T09:57:48.603Z,6.00
2018-03-19T10:00:16.327Z,6.70
2018-03-19T10:02:44.053Z,7.10
2018-03-19T10:05:11.898Z,7.00
2018-03-19T10:07:39.764Z,6.40
2018-03-19T10:10:07.633Z,5.70
2018-03-19T10:12:35.498Z,5.40
2018-03-19T10:15:03.366Z,5.40
2018-03-19T10:17:31.233Z,6.40
2018-03-19T10:19:59.100Z,7.40
2018-03-19T10:22:26.972Z,8.00
2018-03-19T10:24:54.835Z,8.60
2018-03-19T10:27:22.706Z,7.90
2018-03-19T10:29:51.850Z,8.30
2018-03-19T10:32:20.331Z,8.50
2018-03-19T10:34:48.831Z,8.80
2018-03-19T10:37:17.142Z,8.80
2018-03-19T10:39:44.859Z,9.40
2018-03-19T10:42:12.572Z,9.60
2018-03-19T10:44:40.436Z,10.00
2018-03-19T10:47:08.305Z,10.20
2018-03-19T10:49:36.102Z,10.30
2018-03-19T10:52:03.855Z,10.60
2018-03-19T10:54:31.701Z,10.80
2018-03-19T10:56:59.500Z,10.90
2018-03-19T10:59:28.157Z,10.00
2018-03-19T11:02:01.651Z,10.00
2018-03-19T11:04:29.520Z,9.90
2018-03-19T11:07:02.841Z,10.00
2018-03-19T11:09:30.610Z,10.50
2018-03-19T11:11:59.229Z,11.40
2018-03-19T11:14:26.879Z,11.30
2018-03-19T11:16:54.692Z,11.20
2018-03-19T11:19:22.561Z,11.40
2018-03-19T11:21:50.427Z,10.50
2018-03-19T11:24:18.294Z,10.50
2018-03-19T11:26:46.161Z,10.30
2018-03-19T11:29:14.028Z,10.70
2018-03-19T11:31:41.896Z,11.00
2018-03-19T11:34:09.764Z,11.00
2018-03-19T11:36:37.631Z,11.20
2018-03-19T11:39:06.218Z,10.70
2018-03-19T11:41:34.082Z,10.70
2018-03-19T11:44:02.052Z,10.50
2018-03-19T11:46:29.774Z,10.60
2018-03-19T11:48:57.582Z,10.70
2018-03-19T11:51:25.450Z,10.70
2018-03-19T11:53:53.174Z,10.60
2018-03-19T11:56:20.914Z,10.70
2018-03-19T11:58:49.487Z,10.50
2018-03-19T12:01:19.923Z,10.50
2018-03-19T12:03:49.478Z,10.60
2018-03-19T12:06:20.199Z,10.60
2018-03-19T12:08:48.235Z,10.80
2018-03-19T12:11:16.887Z,11.10
2018-03-19T12:13:45.471Z,11.40
2018-03-19T12:16:13.339Z,11.40
2018-03-19T12:18:41.206Z,11.80
2018-03-19T12:21:08.996Z,11.80
2018-03-19T12:23:36.746Z,11.70
2018-03-19T12:26:04.598Z,11.70
2018-03-19T12:28:32.572Z,11.60
2018-03-19T12:31:01.088Z,11.80
2018-03-19T12:33:29.741Z,11.40
2018-03-19T12:35:57.608Z,11.40
2018-03-19T12:38:25.475Z,10.30
2018-03-19T12:40:53.547Z,10.70
2018-03-19T12:43:21.275Z,10.50
2018-03-19T12:45:49.015Z,10.70
2018-03-19T12:48:17.601Z,10.80
2018-03-19T12:50:46.111Z,11.10
2018-03-19T12:53:13.827Z,11.10
2018-03-19T12:55:41.545Z,11.30
2018-03-19T12:58:09.302Z,11.80
2018-03-19T13:00:37.101Z,12.00
2018-03-19T13:03:04.972Z,12.10
2018-03-19T13:05:32.836Z,12.20
2018-03-19T13:08:00.706Z,12.20
2018-03-19T13:10:28.570Z,12.10
2018-03-19T13:12:56.467Z,12.00
2018-03-19T13:15:25.123Z,12.10
2018-03-19T13:17:52.991Z,12.00
2018-03-19T13:20:20.858Z,11.30
2018-03-19T13:22:48.725Z,10.10
2018-03-19T13:25:16.593Z,9.90
2018-03-19T13:27:44.459Z,9.70
2018-03-19T13:30:12.327Z,9.40
2018-03-19T13:32:40.195Z,9.20
2018-03-19T13:35:08.110Z,8.90
2018-03-19T13:37:36.749Z,8.70
2018-03-19T13:40:04.671Z,8.70
2018-03-19T13:42:33.307Z,7.90
2018-03-19T13:45:01.169Z,7.90
2018-03-19T13:47:29.037Z,7.40
2018-03-19T13:49:57.724Z,6.90
2018-03-19T13:52:25.591Z,6.90
2018-03-19T13:54:53.464Z,6.80
2018-03-19T13:57:21.325Z,6.80
2018-03-19T13:59:49.194Z,6.50
2018-03-19T14:02:17.060Z,6.30
2018-03-19T14:04:44.933Z,6.50
2018-03-19T14:07:12.796Z,6.50
2018-03-19T14:09:40.662Z,6.20
2018-03-19T14:12:08.375Z,5.70
2018-03-19T14:14:36.855Z,5.90
2018-03-19T14:17:05.404Z,6.00
2018-03-19T14:19:33.078Z,5.90
2018-03-19T14:22:00.920Z,6.00
2018-03-19T14:24:28.637Z,6.10
2018-03-19T14:26:56.349Z,6.20
2018-03-19T14:29:24.077Z,6.30
2018-03-19T14:31:51.793Z,6.50
2018-03-19T14:34:19.550Z,6.40
2018-03-19T14:36:47.262Z,6.70
2018-03-19T14:39:14.969Z,6.70
2018-03-19T14:41:42.890Z,7.00
2018-03-19T14:44:11.521Z,7.40
2018-03-19T14:46:39.387Z,7.40
2018-03-19T14:49:07.257Z,7.70
2018-03-19T14:51:35.130Z,7.80
2018-03-19T14:54:02.918Z,8.00
2018-03-19T14:56:31.574Z,8.40
2018-03-19T14:58:59.624Z,8.40
2018-03-19T15:01:28.333Z,7.70
2018-03-19T15:03:57.350Z,7.60
2018-03-19T15:06:25.075Z,7.70
2018-03-19T15:08:52.965Z,7.90
2018-03-19T15:11:20.826Z,7.90
2018-03-19T15:13:48.634Z,8.00
2018-03-19T15:16:17.280Z,7.90
2018-03-19T15:18:45.074Z,7.90
2018-03-19T15:21:12.857Z,7.90
2018-03-19T15:23:41.494Z,7.90
2018-03-19T15:26:09.362Z,7.90
2018-03-19T15:28:37.228Z,8.00
2018-03-19T15:31:05.790Z,7.80
2018-03-19T15:33:33.577Z,7.60
2018-03-19T15:36:01.447Z,7.50
2018-03-19T15:38:29.312Z,7.40
2018-03-19T15:40:57.180Z,7.40
2018-03-19T15:43:25.050Z,6.50
2018-03-19T15:45:52.915Z,6.40
2018-03-19T15:48:20.782Z,6.00
2018-03-19T15:50:48.654Z,6.20
2018-03-19T15:53:16.517Z,6.30
2018-03-19T15:55:44.230Z,6.40
2018-03-19T15:58:12.714Z,6.30
2018-03-19T16:00:40.430Z,6.30
2018-03-19T16:03:08.293Z,6.30
2018-03-19T16:05:36.168Z,6.50
2018-03-19T16:08:04.027Z,6.40
2018-03-19T16:10:31.894Z,6.30
2018-03-19T16:12:59.602Z,6.10
2018-03-19T16:15:28.248Z,5.80
2018-03-19T16:17:55.966Z,5.80
2018-03-19T16:20:23.795Z,5.80
2018-03-19T16:22:51.645Z,5.70
2018-03-19T16:25:19.510Z,5.60
2018-03-19T16:27:47.377Z,5.60
2018-03-19T16:30:15.244Z,5.70
2018-03-19T16:32:43.110Z,5.60
2018-03-19T16:35:11.974Z,5.40
2018-03-19T16:37:39.972Z,5.40
2018-03-19T16:40:07.943Z,5.40
2018-03-19T16:42:38.028Z,4.90
2018-03-19T16:45:05.826Z,4.80
2018-03-19T16:47:35.113Z,4.80
2018-03-19T16:50:02.986Z,4.70
2018-03-19T16:52:30.863Z,4.60
2018-03-19T16:55:01.309Z,4.50
2018-03-19T16:57:29.157Z,4.40
2018-03-19T16:59:57.024Z,4.20
2018-03-19T17:02:24.892Z,4.00
2018-03-19T17:04:52.758Z,4.00
2018-03-19T17:07:20.626Z,3.80
2018-03-19T17:09:48.422Z,3.60
2018-03-19T17:12:16.259Z,3.50
2018-03-19T17:14:44.126Z,3.40
2018-03-19T17:17:11.993Z,3.30
2018-03-19T17:19:39.760Z,3.40
2018-03-19T17:22:07.523Z,3.30
2018-03-19T17:24:35.389Z,3.30
2018-03-19T17:27:03.259Z,3.20
2018-03-19T17:29:31.125Z,3.10
2018-03-19T17:31:58.993Z,3.00
2018-03-19T17:34:26.861Z,3.00
2018-03-19T17:36:54.727Z,2.90
2018-03-19T17:39:22.594Z,2.90
2018-03-19T17:41:50.469Z,2.90
2018-03-19T17:44:18.330Z,2.80
2018-03-19T17:46:46.196Z,2.80
2018-03-19T17:49:14.064Z,2.70
2018-03-19T17:51:41.931Z,2.60
2018-03-19T17:54:09.801Z,2.50
2018-03-19T17:56:38.485Z,2.60
2018-03-19T17:59:06.352Z,2.60
2018-03-19T18:01:34.220Z,2.60
2018-03-19T18:04:02.092Z,2.60
2018-03-19T18:06:29.956Z,2.60
2018-03-19T18:08:57.821Z,2.50
2018-03-19T18:11:25.689Z,2.50
2018-03-19T18:13:53.657Z,2.40
2018-03-19T18:16:22.243Z,2.30
2018-03-19T18:18:50.109Z,2.40
2018-03-19T18:21:17.978Z,2.20
2018-03-19T18:23:45.844Z,2.10
2018-03-19T18:26:13.711Z,1.90
2018-03-19T18:28:41.579Z,1.90
2018-03-19T18:31:09.446Z,2.00
2018-03-19T18:33:37.313Z,1.90
2018-03-19T18:36:05.180Z,1.80
2018-03-19T18:38:33.048Z,1.80
2018-03-19T18:41:00.915Z,1.90
2018-03-19T18:43:28.782Z,1.80
2018-03-19T18:45:56.650Z,1.70
2018-03-19T18:48:24.517Z,1.70
2018-03-19T18:50:52.385Z,1.50
2018-03-19T18:53:20.252Z,1.50
2018-03-19T18:55:48.122Z,1.40
2018-03-19T18:58:15.986Z,1.40
2018-03-19T19:00:43.854Z,1.40
2018-03-19T19:03:11.720Z,1.30
2018-03-19T19:05:39.590Z,1.30
2018-03-19T19:08:07.462Z,1.30
2018-03-19T19:10:35.324Z,1.20
2018-03-19T19:13:03.190Z,1.20
2018-03-19T19:15:31.057Z,1.10
2018-03-19T19:17:58.925Z,1.00
2018-03-19T19:20:26.793Z,1.00
2018-03-19T19:22:54.661Z,1.00
2018-03-19T19:25:22.527Z,0.80
2018-03-19T19:27:50.395Z,0.80
2018-03-19T19:30:18.262Z,0.90
2018-03-19T19:32:46.133Z,0.80
2018-03-19T19:35:13.996Z,0.80
2018-03-19T19:37:41.864Z,0.70
2018-03-19T19:40:09.731Z,0.70
2018-03-19T19:42:37.606Z,0.70
2018-03-19T19:45:05.467Z,0.70
2018-03-19T19:47:33.333Z,0.70
2018-03-19T19:50:01.051Z,0.80
2018-03-19T19:52:28.909Z,0.80
2018-03-19T19:54:57.558Z,0.70
2018-03-19T19:57:25.416Z,0.70
2018-03-19T19:59:53.285Z,0.70
2018-03-19T20:02:21.151Z,0.80
2018-03-19T20:04:49.019Z,0.80
2018-03-19T20:07:16.885Z,0.60
2018-03-19T20:09:44.682Z,0.70
2018-03-19T20:12:12.518Z,0.70
2018-03-19T20:14:40.385Z,0.70
2018-03-19T20:17:08.253Z,0.60
2018-03-19T20:19:36.120Z,0.50
2018-03-19T20:22:03.987Z,0.50
2018-03-19T20:24:31.855Z,0.40
2018-03-19T20:26:59.723Z,0.40
2018-03-19T20:29:27.590Z,0.40
2018-03-19T20:31:55.456Z,0.40
2018-03-19T20:34:23.325Z,0.40
2018-03-19T20:36:51.192Z,0.30
2018-03-19T20:39:19.059Z,0.40
2018-03-19T20:41:46.926Z,0.30
2018-03-19T20:44:14.793Z,0.20
2018-03-19T20:46:42.667Z,0.10
2018-03-19T20:49:10.561Z,0.00
2018-03-19T20:51:39.215Z,0.20
2018-03-19T20:54:07.082Z,0.10
2018-03-19T20:56:34.954Z,0.30
2018-03-19T20:59:04.817Z,0.00
2018-03-19T21:01:34.732Z,-0.10
2018-03-19T21:04:02.545Z,-0.10
2018-03-19T21:06:30.414Z,0.00
2018-03-19T21:08:58.279Z,-0.10
2018-03-19T21:11:26.148Z,0.00
2018-03-19T21:13:54.015Z,-0.10
2018-03-19T21:16:21.882Z,0.00
2018-03-19T21:18:49.749Z,0.00
2018-03-19T21:21:17.616Z,0.10
2018-03-19T21:23:45.483Z,0.00
2018-03-19T21:26:13.354Z,0.10
2018-03-19T21:28:41.218Z,0.10
2018-03-19T21:31:09.088Z,0.10
2018-03-19T21:33:36.953Z,0.00
2018-03-19T21:36:04.820Z,0.10
2018-03-19T21:38:32.687Z,0.00
2018-03-19T21:41:00.554Z,0.00
2018-03-19T21:43:28.474Z,0.00
2018-03-19T21:45:57.211Z,0.10
2018-03-19T21:48:25.011Z,0.00
2018-03-19T21:50:53.664Z,-0.20
2018-03-19T21:53:21.530Z,-0.20
2018-03-19T21:55:49.397Z,-0.10
2018-03-19T21:58:17.264Z,-0.10
2018-03-19T22:00:45.132Z,-0.10
2018-03-19T22:03:12.998Z,-0.20
2018-03-19T22:05:40.866Z,-0.20
2018-03-19T22:08:08.733Z,-0.20
2018-03-19T22:10:36.605Z,-0.10
2018-03-19T22:13:04.469Z,-0.10
2018-03-19T22:15:32.336Z,-0.10
2018-03-19T22:18:00.202Z,-0.20
2018-03-19T22:20:28.070Z,-0.10
2018-03-19T22:22:55.940Z,-0.10
2018-03-19T22:25:23.805Z,0.00
2018-03-19T22:27:51.673Z,0.00
2018-03-19T22:30:19.540Z,-0.20
2018-03-19T22:32:47.407Z,-0.30
2018-03-19T22:35:15.279Z,-0.20
2018-03-19T22:37:43.142Z,-0.20
2018-03-19T22:40:11.010Z,-0.20
2018-03-19T22:42:38.876Z,-0.20
2018-03-19T22:45:06.744Z,-0.20
2018-03-19T22:47:34.610Z,-0.30
2018-03-19T22:50:02.478Z,-0.20
2018-03-19T22:52:30.345Z,-0.20
2018-03-19T22:54:58.213Z,-0.20
2018-03-19T22:57:26.080Z,-0.20
2018-03-19T22:59:53.947Z,-0.20
2018-03-19T23:02:21.815Z,-0.20
2018-03-19T23:05:01.411Z,-0.20
2018-03-19T23:07:29.223Z,-0.20
2018-03-19T23:09:57.090Z,-0.30
2018-03-19T23:12:24.957Z,-0.30
2018-03-19T23:14:52.827Z,-0.30
2018-03-19T23:17:20.692Z,-0.30
2018-03-19T23:19:48.410Z,-0.30
2018-03-19T23:22:16.222Z,-0.30
2018-03-19T23:24:44.018Z,-0.30
2018-03-19T23:27:11.854Z,-0.30
2018-03-19T23:29:39.722Z,-0.30
2018-03-19T23:32:07.589Z,-0.40
2018-03-19T23:34:35.457Z,-0.40
2018-03-19T23:37:03.323Z,-0.40
2018-03-19T23:39:31.192Z,-0.40
2018-03-19T23:41:59.060Z,-0.50
2018-03-19T23:44:26.926Z,-0.60
2018-03-19T23:46:54.793Z,-0.60
2018-03-19T23:49:22.661Z,-0.60
2018-03-19T23:51:50.529Z,-0.50
2018-03-19T23:54:29.357Z,-0.50
2018-03-19T23:56:57.220Z,-0.50
2018-03-19T23:59:25.087Z,-0.60
